Wes Sellars — WDF9302 — position and weather

sailwx.info

Track history (hours):
 
Tides and Currents Weather Stations Pressure Air Temp Water Temp Dewpoint Dewpoint Depression Visibility Wind Speed Wind Dir Waves Ship Positions

Wes Sellars

More information available from US FCC via Universal Licensing System and Coast Guard Vessel Documentation Center.

Last reported at 2014-Jul-21 11:31 UTC. Time now 2014-Jul-22 13:27 UTC.
Position N 29°59' W 090°24'.

Length 27 m.

Type: Towing. MMSI: 367503760.

Date/timePositionNaut miles runAvg speedWind from/ knotsBaromVisibWave heightAir tempDewpointWater temp
2014-Jul-21 11:31N 29°59' W 090°24'7 6.7
2014-Jul-21 10:31N 30°03' W 090°30'5 0.3
2014-Jul-20 13:15N 30°03' W 090°36'16 0.5
2014-Jul-19 04:26N 29°56' W 090°20'0 0.0
2014-Jul-19 03:31N 29°56' W 090°20'0 0.0
2014-Jul-19 02:31N 29°56' W 090°20'16 0.4
2014-Jul-17 13:31N 30°02' W 090°36'0 0.0
2014-Jul-17 12:33N 30°02' W 090°36'0 0.0
2014-Jul-17 11:33N 30°02' W 090°36'0 0.0
2014-Jul-17 10:26N 30°02' W 090°36'0 0.0
2014-Jul-17 09:14N 30°02' W 090°36'0 0.0
2014-Jul-17 08:33N 30°02' W 090°36'0 0.0
2014-Jul-17 07:33N 30°02' W 090°36'0 0.0
2014-Jul-17 06:33N 30°02' W 090°36'0 0.0
2014-Jul-17 05:23N 30°02' W 090°36'0 0.0
2014-Jul-17 04:33N 30°02' W 090°36'0 0.0
2014-Jul-17 03:32N 30°02' W 090°36'  
2014-Jul-14 18:09N 30°02' W 090°36'0 0.0
2014-Jul-14 13:07N 30°02' W 090°36'0 0.0
2014-Jul-14 12:13N 30°02' W 090°36'0 0.0
2014-Jul-14 11:30N 30°02' W 090°36'0 0.0
2014-Jul-14 10:33N 30°02' W 090°36'0 0.0
2014-Jul-14 09:32N 30°02' W 090°36'0 0.0
2014-Jul-14 08:30N 30°02' W 090°36'0 0.0
2014-Jul-14 07:32N 30°02' W 090°36'0 0.0
2014-Jul-14 06:32N 30°02' W 090°36'0 0.0
2014-Jul-14 05:31N 30°02' W 090°36'0 0.0
2014-Jul-14 04:31N 30°02' W 090°36'0 0.0
2014-Jul-14 03:27N 30°02' W 090°36'0 0.0
2014-Jul-14 02:18N 30°02' W 090°36'0 0.0
2014-Jul-14 01:32N 30°02' W 090°36'31 0.8
2014-Jul-12 11:15N 29°50' W 090°03'6 1.8
2014-Jul-12 08:06N 29°46' W 090°07'16 5.4
2014-Jul-12 05:12N 29°37' W 090°21'3 5.3
2014-Jul-12 04:33N 29°34' W 090°23'6 5.6
2014-Jul-12 03:33N 29°34' W 090°30'6 5.9
2014-Jul-12 02:33N 29°35' W 090°36'4 3.6
2014-Jul-12 01:33N 29°36' W 090°40'2 2.5
2014-Jul-12 00:33N 29°35' W 090°43'3 3.0
2014-Jul-11 23:32N 29°33' W 090°45'10 4.9
2014-Jul-11 21:32N 29°34' W 090°57'6 6.3
2014-Jul-11 20:32N 29°37' W 091°03'6 6.2
2014-Jul-11 19:33N 29°41' W 091°08'4 3.8
2014-Jul-11 18:33N 29°41' W 091°13'5 4.9
2014-Jul-11 17:33N 29°39' W 091°18'6 6.4
2014-Jul-11 16:33N 29°39' W 091°25'6 5.8
2014-Jul-11 15:33N 29°42' W 091°31'6 5.8
2014-Jul-11 14:30N 29°46' W 091°37'7 6.4
2014-Jul-11 13:29N 29°46' W 091°44'  
Track history (hours):
 
Tides and Currents Weather Stations Pressure Air Temp Water Temp Dewpoint Dewpoint Depression Visibility Wind Speed Wind Dir Waves Ship Positions

Wes Sellars

More information available from US FCC via Universal Licensing System and Coast Guard Vessel Documentation Center.

Last reported at 2014-Jul-21 11:31 UTC. Time now 2014-Jul-22 13:27 UTC.
Position N 29°59' W 090°24'.

Length 27 m.

Type: Towing. MMSI: 367503760.

Date/timePositionNaut miles runAvg speedWind from/ knotsBaromVisibWave heightAir tempDewpointWater temp
2014-Jul-21 11:31N 29°59' W 090°24'7 6.7
2014-Jul-21 10:31N 30°03' W 090°30'5 0.3
2014-Jul-20 13:15N 30°03' W 090°36'16 0.5
2014-Jul-19 04:26N 29°56' W 090°20'0 0.0
2014-Jul-19 03:31N 29°56' W 090°20'0 0.0
2014-Jul-19 02:31N 29°56' W 090°20'16 0.4
2014-Jul-17 13:31N 30°02' W 090°36'0 0.0
2014-Jul-17 12:33N 30°02' W 090°36'0 0.0
2014-Jul-17 11:33N 30°02' W 090°36'0 0.0
2014-Jul-17 10:26N 30°02' W 090°36'0 0.0
2014-Jul-17 09:14N 30°02' W 090°36'0 0.0
2014-Jul-17 08:33N 30°02' W 090°36'0 0.0
2014-Jul-17 07:33N 30°02' W 090°36'0 0.0
2014-Jul-17 06:33N 30°02' W 090°36'0 0.0
2014-Jul-17 05:23N 30°02' W 090°36'0 0.0
2014-Jul-17 04:33N 30°02' W 090°36'0 0.0
2014-Jul-17 03:32N 30°02' W 090°36'  
2014-Jul-14 18:09N 30°02' W 090°36'0 0.0
2014-Jul-14 13:07N 30°02' W 090°36'0 0.0
2014-Jul-14 12:13N 30°02' W 090°36'0 0.0
2014-Jul-14 11:30N 30°02' W 090°36'0 0.0
2014-Jul-14 10:33N 30°02' W 090°36'0 0.0
2014-Jul-14 09:32N 30°02' W 090°36'0 0.0
2014-Jul-14 08:30N 30°02' W 090°36'0 0.0
2014-Jul-14 07:32N 30°02' W 090°36'0 0.0
2014-Jul-14 06:32N 30°02' W 090°36'0 0.0
2014-Jul-14 05:31N 30°02' W 090°36'0 0.0
2014-Jul-14 04:31N 30°02' W 090°36'0 0.0
2014-Jul-14 03:27N 30°02' W 090°36'0 0.0
2014-Jul-14 02:18N 30°02' W 090°36'0 0.0
2014-Jul-14 01:32N 30°02' W 090°36'31 0.8
2014-Jul-12 11:15N 29°50' W 090°03'6 1.8
2014-Jul-12 08:06N 29°46' W 090°07'16 5.4
2014-Jul-12 05:12N 29°37' W 090°21'3 5.3
2014-Jul-12 04:33N 29°34' W 090°23'6 5.6
2014-Jul-12 03:33N 29°34' W 090°30'6 5.9
2014-Jul-12 02:33N 29°35' W 090°36'4 3.6
2014-Jul-12 01:33N 29°36' W 090°40'2 2.5
2014-Jul-12 00:33N 29°35' W 090°43'3 3.0
2014-Jul-11 23:32N 29°33' W 090°45'10 4.9
2014-Jul-11 21:32N 29°34' W 090°57'6 6.3
2014-Jul-11 20:32N 29°37' W 091°03'6 6.2
2014-Jul-11 19:33N 29°41' W 091°08'4 3.8
2014-Jul-11 18:33N 29°41' W 091°13'5 4.9
2014-Jul-11 17:33N 29°39' W 091°18'6 6.4
2014-Jul-11 16:33N 29°39' W 091°25'6 5.8
2014-Jul-11 15:33N 29°42' W 091°31'6 5.8
2014-Jul-11 14:30N 29°46' W 091°37'7 6.4
2014-Jul-11 13:29N 29°46' W 091°44'  

Dump ship's entire track history